sensor_id;sensor_type;location;lat;lon;timestamp;P1;durP1;ratioP1;P2;durP2;ratioP2
21432;SDS011;18592;49.708;10.900;2023-04-03T00:01:33;2.80;;;1.50;;
21432;SDS011;18592;49.708;10.900;2023-04-03T00:03:35;1.42;;;1.27;;
21432;SDS011;18592;49.708;10.900;2023-04-03T00:05:36;1.60;;;1.05;;
21432;SDS011;18592;49.708;10.900;2023-04-03T00:07:42;1.60;;;1.30;;
21432;SDS011;18592;49.708;10.900;2023-04-03T00:09:44;2.20;;;1.50;;
21432;SDS011;18592;49.708;10.900;2023-04-03T00:11:45;1.63;;;1.30;;
21432;SDS011;18592;49.708;10.900;2023-04-03T00:13:47;2.35;;;1.40;;
21432;SDS011;18592;49.708;10.900;2023-04-03T00:15:51;3.65;;;1.80;;
21432;SDS011;18592;49.708;10.900;2023-04-03T00:17:52;2.03;;;1.52;;
21432;SDS011;18592;49.708;10.900;2023-04-03T00:19:54;1.52;;;1.35;;
21432;SDS011;18592;49.708;10.900;2023-04-03T00:21:57;1.30;;;1.20;;
21432;SDS011;18592;49.708;10.900;2023-04-03T00:23:58;1.55;;;1.30;;
21432;SDS011;18592;49.708;10.900;2023-04-03T00:26:00;1.48;;;1.35;;
21432;SDS011;18592;49.708;10.900;2023-04-03T00:28:02;1.42;;;1.23;;
21432;SDS011;18592;49.708;10.900;2023-04-03T00:30:05;1.60;;;1.40;;
21432;SDS011;18592;49.708;10.900;2023-04-03T00:32:07;1.90;;;1.38;;
21432;SDS011;18592;49.708;10.900;2023-04-03T00:34:09;2.25;;;1.30;;
21432;SDS011;18592;49.708;10.900;2023-04-03T00:36:11;1.70;;;1.20;;
21432;SDS011;18592;49.708;10.900;2023-04-03T00:38:14;1.73;;;1.45;;
21432;SDS011;18592;49.708;10.900;2023-04-03T00:40:16;2.55;;;1.42;;
21432;SDS011;18592;49.708;10.900;2023-04-03T00:42:18;2.25;;;1.40;;
21432;SDS011;18592;49.708;10.900;2023-04-03T00:44:22;2.08;;;1.40;;
21432;SDS011;18592;49.708;10.900;2023-04-03T00:46:47;1.27;;;1.13;;
21432;SDS011;18592;49.708;10.900;2023-04-03T00:48:50;1.98;;;1.13;;
21432;SDS011;18592;49.708;10.900;2023-04-03T00:50:52;2.63;;;1.45;;
21432;SDS011;18592;49.708;10.900;2023-04-03T00:52:54;1.88;;;1.10;;
21432;SDS011;18592;49.708;10.900;2023-04-03T00:54:58;1.90;;;1.10;;
21432;SDS011;18592;49.708;10.900;2023-04-03T00:57:03;1.88;;;1.42;;
21432;SDS011;18592;49.708;10.900;2023-04-03T00:59:15;1.50;;;1.10;;
21432;SDS011;18592;49.708;10.900;2023-04-03T01:01:23;2.38;;;1.30;;
21432;SDS011;18592;49.708;10.900;2023-04-03T01:03:26;2.30;;;1.40;;
21432;SDS011;18592;49.708;10.900;2023-04-03T01:05:34;1.38;;;1.10;;
21432;SDS011;18592;49.708;10.900;2023-04-03T01:07:36;1.98;;;1.20;;
21432;SDS011;18592;49.708;10.900;2023-04-03T01:09:38;1.73;;;1.05;;
21432;SDS011;18592;49.708;10.900;2023-04-03T01:11:41;1.95;;;1.30;;
21432;SDS011;18592;49.708;10.900;2023-04-03T01:13:42;1.55;;;1.30;;
21432;SDS011;18592;49.708;10.900;2023-04-03T01:15:44;1.63;;;1.30;;
21432;SDS011;18592;49.708;10.900;2023-04-03T01:17:49;1.77;;;1.50;;
21432;SDS011;18592;49.708;10.900;2023-04-03T01:22:54;1.50;;;1.25;;
21432;SDS011;18592;49.708;10.900;2023-04-03T01:25:10;1.33;;;1.20;;
21432;SDS011;18592;49.708;10.900;2023-04-03T01:27:11;2.15;;;1.65;;
21432;SDS011;18592;49.708;10.900;2023-04-03T01:29:16;1.30;;;1.20;;
21432;SDS011;18592;49.708;10.900;2023-04-03T01:31:25;1.80;;;1.27;;
21432;SDS011;18592;49.708;10.900;2023-04-03T01:33:32;1.70;;;1.50;;
21432;SDS011;18592;49.708;10.900;2023-04-03T01:35:34;1.65;;;1.08;;
21432;SDS011;18592;49.708;10.900;2023-04-03T01:37:38;2.78;;;1.38;;
21432;SDS011;18592;49.708;10.900;2023-04-03T01:39:40;4.15;;;1.30;;
21432;SDS011;18592;49.708;10.900;2023-04-03T01:41:47;2.08;;;1.20;;
21432;SDS011;18592;49.708;10.900;2023-04-03T01:44:00;1.80;;;1.20;;
21432;SDS011;18592;49.708;10.900;2023-04-03T01:46:02;2.78;;;1.52;;
21432;SDS011;18592;49.708;10.900;2023-04-03T01:48:05;1.60;;;1.20;;
21432;SDS011;18592;49.708;10.900;2023-04-03T01:50:07;1.92;;;1.35;;
21432;SDS011;18592;49.708;10.900;2023-04-03T01:52:15;1.40;;;1.30;;
21432;SDS011;18592;49.708;10.900;2023-04-03T01:54:16;1.20;;;1.10;;
21432;SDS011;18592;49.708;10.900;2023-04-03T01:56:19;1.50;;;1.20;;
21432;SDS011;18592;49.708;10.900;2023-04-03T01:58:22;1.75;;;1.15;;
21432;SDS011;18592;49.708;10.900;2023-04-03T02:00:25;1.30;;;1.20;;
21432;SDS011;18592;49.708;10.900;2023-04-03T02:02:27;1.70;;;1.42;;
21432;SDS011;18592;49.708;10.900;2023-04-03T02:04:32;2.58;;;1.35;;
21432;SDS011;18592;49.708;10.900;2023-04-03T02:06:36;1.80;;;1.13;;
21432;SDS011;18592;49.708;10.900;2023-04-03T02:08:38;1.52;;;1.35;;
21432;SDS011;18592;49.708;10.900;2023-04-03T02:10:40;2.05;;;1.23;;
21432;SDS011;18592;49.708;10.900;2023-04-03T02:12:41;2.20;;;1.20;;
21432;SDS011;18592;49.708;10.900;2023-04-03T02:14:43;1.42;;;1.30;;
21432;SDS011;18592;49.708;10.900;2023-04-03T02:16:46;2.25;;;1.30;;
21432;SDS011;18592;49.708;10.900;2023-04-03T02:18:47;1.83;;;1.38;;
21432;SDS011;18592;49.708;10.900;2023-04-03T02:20:50;2.00;;;1.40;;
21432;SDS011;18592;49.708;10.900;2023-04-03T02:22:51;1.58;;;1.30;;
21432;SDS011;18592;49.708;10.900;2023-04-03T02:24:53;2.10;;;1.58;;
21432;SDS011;18592;49.708;10.900;2023-04-03T02:26:54;1.58;;;1.30;;
21432;SDS011;18592;49.708;10.900;2023-04-03T02:28:56;1.60;;;1.20;;
21432;SDS011;18592;49.708;10.900;2023-04-03T02:31:00;2.15;;;1.42;;
21432;SDS011;18592;49.708;10.900;2023-04-03T02:33:02;1.52;;;1.42;;
21432;SDS011;18592;49.708;10.900;2023-04-03T02:35:06;2.47;;;1.50;;
21432;SDS011;18592;49.708;10.900;2023-04-03T02:37:09;1.58;;;1.45;;
21432;SDS011;18592;49.708;10.900;2023-04-03T02:39:10;2.58;;;1.50;;
21432;SDS011;18592;49.708;10.900;2023-04-03T02:41:12;2.47;;;1.42;;
21432;SDS011;18592;49.708;10.900;2023-04-03T02:43:14;3.22;;;1.48;;
21432;SDS011;18592;49.708;10.900;2023-04-03T02:45:16;1.90;;;1.20;;
21432;SDS011;18592;49.708;10.900;2023-04-03T02:47:18;2.25;;;1.40;;
21432;SDS011;18592;49.708;10.900;2023-04-03T02:49:20;1.05;;;0.95;;
21432;SDS011;18592;49.708;10.900;2023-04-03T02:51:24;1.35;;;1.23;;
21432;SDS011;18592;49.708;10.900;2023-04-03T02:53:27;3.28;;;1.35;;
21432;SDS011;18592;49.708;10.900;2023-04-03T02:55:29;2.22;;;1.45;;
21432;SDS011;18592;49.708;10.900;2023-04-03T02:57:32;2.58;;;1.50;;
21432;SDS011;18592;49.708;10.900;2023-04-03T02:59:35;3.25;;;1.42;;
21432;SDS011;18592;49.708;10.900;2023-04-03T03:01:38;2.97;;;1.50;;
21432;SDS011;18592;49.708;10.900;2023-04-03T03:03:42;2.88;;;1.85;;
21432;SDS011;18592;49.708;10.900;2023-04-03T03:05:45;1.92;;;1.40;;
21432;SDS011;18592;49.708;10.900;2023-04-03T03:07:47;2.25;;;1.35;;
21432;SDS011;18592;49.708;10.900;2023-04-03T03:09:48;1.80;;;1.30;;
21432;SDS011;18592;49.708;10.900;2023-04-03T03:11:50;1.70;;;1.42;;
21432;SDS011;18592;49.708;10.900;2023-04-03T03:13:58;2.53;;;1.40;;
21432;SDS011;18592;49.708;10.900;2023-04-03T03:16:05;1.70;;;1.15;;
21432;SDS011;18592;49.708;10.900;2023-04-03T03:18:08;2.40;;;1.40;;
21432;SDS011;18592;49.708;10.900;2023-04-03T03:20:10;2.63;;;1.60;;
21432;SDS011;18592;49.708;10.900;2023-04-03T03:22:12;1.80;;;1.40;;
21432;SDS011;18592;49.708;10.900;2023-04-03T03:24:14;3.20;;;1.55;;
21432;SDS011;18592;49.708;10.900;2023-04-03T03:26:16;3.05;;;1.60;;
21432;SDS011;18592;49.708;10.900;2023-04-03T03:28:18;2.58;;;1.70;;
21432;SDS011;18592;49.708;10.900;2023-04-03T03:30:20;2.95;;;1.63;;
21432;SDS011;18592;49.708;10.900;2023-04-03T03:32:25;3.28;;;1.65;;
21432;SDS011;18592;49.708;10.900;2023-04-03T03:34:26;2.70;;;1.50;;
21432;SDS011;18592;49.708;10.900;2023-04-03T03:36:31;2.95;;;1.55;;
21432;SDS011;18592;49.708;10.900;2023-04-03T03:38:33;2.17;;;1.48;;
21432;SDS011;18592;49.708;10.900;2023-04-03T03:40:35;4.18;;;1.60;;
21432;SDS011;18592;49.708;10.900;2023-04-03T03:42:37;1.92;;;1.40;;
21432;SDS011;18592;49.708;10.900;2023-04-03T03:44:40;3.17;;;1.73;;
21432;SDS011;18592;49.708;10.900;2023-04-03T03:46:47;2.05;;;1.60;;
21432;SDS011;18592;49.708;10.900;2023-04-03T03:48:48;1.80;;;1.38;;
21432;SDS011;18592;49.708;10.900;2023-04-03T03:50:50;1.80;;;1.40;;
21432;SDS011;18592;49.708;10.900;2023-04-03T03:52:55;3.05;;;1.73;;
21432;SDS011;18592;49.708;10.900;2023-04-03T03:54:57;2.08;;;1.40;;
21432;SDS011;18592;49.708;10.900;2023-04-03T03:57:00;2.88;;;1.33;;
21432;SDS011;18592;49.708;10.900;2023-04-03T03:59:04;2.70;;;1.30;;
21432;SDS011;18592;49.708;10.900;2023-04-03T04:01:06;2.53;;;1.33;;
21432;SDS011;18592;49.708;10.900;2023-04-03T04:03:13;3.53;;;1.40;;
21432;SDS011;18592;49.708;10.900;2023-04-03T04:05:16;2.15;;;1.40;;
21432;SDS011;18592;49.708;10.900;2023-04-03T04:07:18;3.50;;;1.80;;
21432;SDS011;18592;49.708;10.900;2023-04-03T04:09:20;2.00;;;1.48;;
21432;SDS011;18592;49.708;10.900;2023-04-03T04:11:25;2.95;;;1.70;;
21432;SDS011;18592;49.708;10.900;2023-04-03T04:13:31;2.88;;;1.63;;
21432;SDS011;18592;49.708;10.900;2023-04-03T04:15:36;2.05;;;1.40;;
21432;SDS011;18592;49.708;10.900;2023-04-03T04:17:38;2.63;;;1.77;;
21432;SDS011;18592;49.708;10.900;2023-04-03T04:19:44;3.70;;;1.50;;
21432;SDS011;18592;49.708;10.900;2023-04-03T04:21:48;4.22;;;1.60;;
21432;SDS011;18592;49.708;10.900;2023-04-03T04:23:53;3.08;;;1.58;;
21432;SDS011;18592;49.708;10.900;2023-04-03T04:25:54;4.10;;;1.92;;
21432;SDS011;18592;49.708;10.900;2023-04-03T04:27:57;2.78;;;1.75;;
21432;SDS011;18592;49.708;10.900;2023-04-03T04:29:58;2.58;;;1.67;;
21432;SDS011;18592;49.708;10.900;2023-04-03T04:32:02;3.97;;;1.75;;
21432;SDS011;18592;49.708;10.900;2023-04-03T04:34:08;2.95;;;1.70;;
21432;SDS011;18592;49.708;10.900;2023-04-03T04:36:11;3.35;;;1.60;;
21432;SDS011;18592;49.708;10.900;2023-04-03T04:38:12;5.55;;;1.83;;
21432;SDS011;18592;49.708;10.900;2023-04-03T04:40:14;3.33;;;1.77;;
21432;SDS011;18592;49.708;10.900;2023-04-03T04:42:17;1.85;;;1.58;;
21432;SDS011;18592;49.708;10.900;2023-04-03T04:44:21;2.63;;;1.60;;
21432;SDS011;18592;49.708;10.900;2023-04-03T04:46:27;2.53;;;1.35;;
21432;SDS011;18592;49.708;10.900;2023-04-03T04:48:31;4.38;;;1.90;;
21432;SDS011;18592;49.708;10.900;2023-04-03T04:50:34;3.63;;;1.83;;
21432;SDS011;18592;49.708;10.900;2023-04-03T04:52:35;4.15;;;1.73;;
21432;SDS011;18592;49.708;10.900;2023-04-03T04:54:38;3.13;;;1.85;;
21432;SDS011;18592;49.708;10.900;2023-04-03T04:56:48;2.45;;;1.60;;
21432;SDS011;18592;49.708;10.900;2023-04-03T04:58:50;2.22;;;1.83;;
21432;SDS011;18592;49.708;10.900;2023-04-03T05:01:00;2.35;;;2.05;;
21432;SDS011;18592;49.708;10.900;2023-04-03T05:03:12;3.78;;;1.90;;
21432;SDS011;18592;49.708;10.900;2023-04-03T05:05:14;3.97;;;2.10;;
21432;SDS011;18592;49.708;10.900;2023-04-03T05:07:16;2.78;;;1.80;;
21432;SDS011;18592;49.708;10.900;2023-04-03T05:09:20;2.05;;;1.67;;
21432;SDS011;18592;49.708;10.900;2023-04-03T05:11:23;2.20;;;1.70;;
21432;SDS011;18592;49.708;10.900;2023-04-03T05:13:26;4.25;;;1.88;;
21432;SDS011;18592;49.708;10.900;2023-04-03T05:15:32;2.40;;;1.70;;
21432;SDS011;18592;49.708;10.900;2023-04-03T05:17:34;2.50;;;1.77;;
21432;SDS011;18592;49.708;10.900;2023-04-03T05:19:37;1.80;;;1.55;;
21432;SDS011;18592;49.708;10.900;2023-04-03T05:21:41;3.53;;;1.80;;
21432;SDS011;18592;49.708;10.900;2023-04-03T05:23:47;3.90;;;1.70;;
21432;SDS011;18592;49.708;10.900;2023-04-03T05:25:48;3.08;;;1.95;;
21432;SDS011;18592;49.708;10.900;2023-04-03T05:27:51;2.05;;;1.60;;
21432;SDS011;18592;49.708;10.900;2023-04-03T05:29:56;2.67;;;1.63;;
21432;SDS011;18592;49.708;10.900;2023-04-03T05:32:00;4.10;;;1.70;;
21432;SDS011;18592;49.708;10.900;2023-04-03T05:34:02;2.90;;;1.90;;
21432;SDS011;18592;49.708;10.900;2023-04-03T05:36:07;3.65;;;1.25;;
21432;SDS011;18592;49.708;10.900;2023-04-03T05:38:15;3.80;;;1.83;;
21432;SDS011;18592;49.708;10.900;2023-04-03T05:40:17;3.90;;;1.70;;
21432;SDS011;18592;49.708;10.900;2023-04-03T05:42:22;2.33;;;1.52;;
21432;SDS011;18592;49.708;10.900;2023-04-03T05:44:24;4.18;;;1.90;;
21432;SDS011;18592;49.708;10.900;2023-04-03T05:46:28;2.22;;;1.35;;
21432;SDS011;18592;49.708;10.900;2023-04-03T05:48:32;3.88;;;1.75;;
21432;SDS011;18592;49.708;10.900;2023-04-03T05:50:33;4.03;;;1.58;;
21432;SDS011;18592;49.708;10.900;2023-04-03T05:52:45;3.90;;;1.92;;
21432;SDS011;18592;49.708;10.900;2023-04-03T05:54:52;2.97;;;1.70;;
21432;SDS011;18592;49.708;10.900;2023-04-03T05:56:59;3.05;;;1.50;;
21432;SDS011;18592;49.708;10.900;2023-04-03T05:59:02;3.33;;;1.85;;
21432;SDS011;18592;49.708;10.900;2023-04-03T06:01:24;1.88;;;1.50;;
21432;SDS011;18592;49.708;10.900;2023-04-03T06:03:25;4.75;;;2.03;;
21432;SDS011;18592;49.708;10.900;2023-04-03T06:05:28;2.58;;;1.60;;
21432;SDS011;18592;49.708;10.900;2023-04-03T06:07:29;2.67;;;1.70;;
21432;SDS011;18592;49.708;10.900;2023-04-03T06:09:32;3.60;;;1.70;;
21432;SDS011;18592;49.708;10.900;2023-04-03T06:11:33;2.22;;;1.50;;
21432;SDS011;18592;49.708;10.900;2023-04-03T06:13:35;3.33;;;1.63;;
21432;SDS011;18592;49.708;10.900;2023-04-03T06:15:37;4.43;;;1.70;;
21432;SDS011;18592;49.708;10.900;2023-04-03T06:17:43;4.60;;;1.58;;
21432;SDS011;18592;49.708;10.900;2023-04-03T06:19:47;3.05;;;1.60;;
21432;SDS011;18592;49.708;10.900;2023-04-03T06:21:49;2.42;;;1.60;;
21432;SDS011;18592;49.708;10.900;2023-04-03T06:23:53;3.92;;;1.80;;
21432;SDS011;18592;49.708;10.900;2023-04-03T06:25:54;3.55;;;1.98;;
21432;SDS011;18592;49.708;10.900;2023-04-03T06:27:56;3.40;;;1.95;;
21432;SDS011;18592;49.708;10.900;2023-04-03T06:29:57;4.38;;;2.17;;
21432;SDS011;18592;49.708;10.900;2023-04-03T06:32:01;3.60;;;1.77;;
21432;SDS011;18592;49.708;10.900;2023-04-03T06:34:03;4.13;;;2.10;;
21432;SDS011;18592;49.708;10.900;2023-04-03T06:36:07;3.97;;;2.03;;
21432;SDS011;18592;49.708;10.900;2023-04-03T06:38:14;2.97;;;1.90;;
21432;SDS011;18592;49.708;10.900;2023-04-03T06:40:20;2.67;;;1.98;;
21432;SDS011;18592;49.708;10.900;2023-04-03T06:42:30;2.85;;;1.70;;
21432;SDS011;18592;49.708;10.900;2023-04-03T06:44:39;3.72;;;2.20;;
21432;SDS011;18592;49.708;10.900;2023-04-03T06:46:41;4.57;;;2.20;;
21432;SDS011;18592;49.708;10.900;2023-04-03T06:48:44;3.55;;;2.10;;
21432;SDS011;18592;49.708;10.900;2023-04-03T06:50:46;3.70;;;2.13;;
21432;SDS011;18592;49.708;10.900;2023-04-03T06:52:48;2.28;;;1.75;;
21432;SDS011;18592;49.708;10.900;2023-04-03T06:54:49;6.10;;;2.72;;
21432;SDS011;18592;49.708;10.900;2023-04-03T06:56:58;4.90;;;2.47;;
21432;SDS011;18592;49.708;10.900;2023-04-03T06:59:00;4.55;;;2.83;;
21432;SDS011;18592;49.708;10.900;2023-04-03T07:01:01;5.05;;;2.33;;
21432;SDS011;18592;49.708;10.900;2023-04-03T07:03:03;4.53;;;2.35;;
21432;SDS011;18592;49.708;10.900;2023-04-03T07:05:05;4.53;;;2.30;;
21432;SDS011;18592;49.708;10.900;2023-04-03T07:07:07;5.03;;;2.47;;
21432;SDS011;18592;49.708;10.900;2023-04-03T07:09:09;5.00;;;2.00;;
21432;SDS011;18592;49.708;10.900;2023-04-03T07:11:12;4.80;;;2.00;;
21432;SDS011;18592;49.708;10.900;2023-04-03T07:13:14;3.90;;;2.13;;
21432;SDS011;18592;49.708;10.900;2023-04-03T07:15:16;4.93;;;2.15;;
21432;SDS011;18592;49.708;10.900;2023-04-03T07:17:17;4.43;;;2.40;;
21432;SDS011;18592;49.708;10.900;2023-04-03T07:19:19;3.65;;;1.98;;
21432;SDS011;18592;49.708;10.900;2023-04-03T07:21:20;4.45;;;2.38;;
21432;SDS011;18592;49.708;10.900;2023-04-03T07:23:22;4.78;;;2.75;;
21432;SDS011;18592;49.708;10.900;2023-04-03T07:25:24;4.40;;;2.00;;
21432;SDS011;18592;49.708;10.900;2023-04-03T07:27:26;5.07;;;2.35;;
21432;SDS011;18592;49.708;10.900;2023-04-03T07:29:28;3.22;;;2.15;;
21432;SDS011;18592;49.708;10.900;2023-04-03T07:31:29;3.38;;;2.17;;
21432;SDS011;18592;49.708;10.900;2023-04-03T07:33:31;4.55;;;2.05;;
21432;SDS011;18592;49.708;10.900;2023-04-03T07:35:33;3.60;;;1.85;;
21432;SDS011;18592;49.708;10.900;2023-04-03T07:37:35;3.13;;;2.10;;
21432;SDS011;18592;49.708;10.900;2023-04-03T07:39:36;4.68;;;2.40;;
21432;SDS011;18592;49.708;10.900;2023-04-03T07:41:38;4.55;;;2.40;;
21432;SDS011;18592;49.708;10.900;2023-04-03T07:43:39;4.53;;;2.30;;
21432;SDS011;18592;49.708;10.900;2023-04-03T07:45:42;4.05;;;2.45;;
21432;SDS011;18592;49.708;10.900;2023-04-03T07:47:44;6.40;;;3.05;;
21432;SDS011;18592;49.708;10.900;2023-04-03T07:49:46;3.40;;;2.30;;
21432;SDS011;18592;49.708;10.900;2023-04-03T07:51:48;4.40;;;2.35;;
21432;SDS011;18592;49.708;10.900;2023-04-03T07:53:50;4.63;;;2.70;;
21432;SDS011;18592;49.708;10.900;2023-04-03T07:55:51;3.03;;;2.33;;
21432;SDS011;18592;49.708;10.900;2023-04-03T07:57:56;4.20;;;2.08;;
21432;SDS011;18592;49.708;10.900;2023-04-03T07:59:58;4.43;;;2.30;;
21432;SDS011;18592;49.708;10.900;2023-04-03T08:02:00;3.20;;;2.13;;
21432;SDS011;18592;49.708;10.900;2023-04-03T08:04:02;4.43;;;2.42;;
21432;SDS011;18592;49.708;10.900;2023-04-03T08:06:04;4.10;;;2.13;;
21432;SDS011;18592;49.708;10.900;2023-04-03T08:08:16;2.60;;;2.20;;
21432;SDS011;18592;49.708;10.900;2023-04-03T08:10:21;4.93;;;2.20;;
21432;SDS011;18592;49.708;10.900;2023-04-03T08:12:23;3.58;;;2.10;;
21432;SDS011;18592;49.708;10.900;2023-04-03T08:14:32;4.32;;;2.30;;
21432;SDS011;18592;49.708;10.900;2023-04-03T08:16:35;5.88;;;2.00;;
21432;SDS011;18592;49.708;10.900;2023-04-03T08:18:37;5.20;;;2.20;;
21432;SDS011;18592;49.708;10.900;2023-04-03T08:20:40;3.92;;;1.90;;
21432;SDS011;18592;49.708;10.900;2023-04-03T08:22:49;4.50;;;2.05;;
21432;SDS011;18592;49.708;10.900;2023-04-03T08:24:51;3.33;;;2.30;;
21432;SDS011;18592;49.708;10.900;2023-04-03T08:27:00;3.13;;;2.08;;
21432;SDS011;18592;49.708;10.900;2023-04-03T08:29:04;3.95;;;2.28;;
21432;SDS011;18592;49.708;10.900;2023-04-03T08:31:07;4.43;;;2.35;;
21432;SDS011;18592;49.708;10.900;2023-04-03T08:33:12;3.88;;;2.25;;
21432;SDS011;18592;49.708;10.900;2023-04-03T08:35:16;2.90;;;1.90;;
21432;SDS011;18592;49.708;10.900;2023-04-03T08:37:18;4.55;;;2.10;;
21432;SDS011;18592;49.708;10.900;2023-04-03T08:39:23;4.38;;;2.17;;
21432;SDS011;18592;49.708;10.900;2023-04-03T08:43:35;2.20;;;1.75;;
21432;SDS011;18592;49.708;10.900;2023-04-03T08:45:48;3.35;;;1.73;;
21432;SDS011;18592;49.708;10.900;2023-04-03T08:48:05;2.08;;;1.63;;
21432;SDS011;18592;49.708;10.900;2023-04-03T08:50:18;2.13;;;1.60;;
21432;SDS011;18592;49.708;10.900;2023-04-03T08:54:50;2.75;;;1.90;;
21432;SDS011;18592;49.708;10.900;2023-04-03T08:56:53;5.45;;;2.10;;
21432;SDS011;18592;49.708;10.900;2023-04-03T08:59:05;4.00;;;1.70;;
21432;SDS011;18592;49.708;10.900;2023-04-03T09:01:20;3.22;;;1.80;;
21432;SDS011;18592;49.708;10.900;2023-04-03T09:03:29;4.45;;;1.90;;
21432;SDS011;18592;49.708;10.900;2023-04-03T09:05:39;2.92;;;1.70;;
21432;SDS011;18592;49.708;10.900;2023-04-03T09:08:00;2.55;;;1.45;;
21432;SDS011;18592;49.708;10.900;2023-04-03T09:10:10;2.72;;;1.63;;
21432;SDS011;18592;49.708;10.900;2023-04-03T09:12:19;1.42;;;1.30;;
21432;SDS011;18592;49.708;10.900;2023-04-03T09:19:44;3.00;;;1.40;;
21432;SDS011;18592;49.708;10.900;2023-04-03T09:21:31;4.75;;;1.67;;
21432;SDS011;18592;49.708;10.900;2023-04-03T09:23:45;2.72;;;1.50;;
21432;SDS011;18592;49.708;10.900;2023-04-03T09:25:52;2.90;;;1.40;;
21432;SDS011;18592;49.708;10.900;2023-04-03T09:27:58;3.45;;;1.13;;
21432;SDS011;18592;49.708;10.900;2023-04-03T09:30:01;2.47;;;1.33;;
21432;SDS011;18592;49.708;10.900;2023-04-03T09:32:12;2.60;;;1.35;;
21432;SDS011;18592;49.708;10.900;2023-04-03T09:34:26;1.90;;;1.27;;
21432;SDS011;18592;49.708;10.900;2023-04-03T09:36:40;2.72;;;1.40;;
21432;SDS011;18592;49.708;10.900;2023-04-03T09:38:46;1.63;;;1.15;;
21432;SDS011;18592;49.708;10.900;2023-04-03T09:41:13;3.75;;;1.60;;
21432;SDS011;18592;49.708;10.900;2023-04-03T09:43:21;4.15;;;1.40;;
21432;SDS011;18592;49.708;10.900;2023-04-03T09:45:31;1.95;;;1.27;;
21432;SDS011;18592;49.708;10.900;2023-04-03T09:47:36;3.50;;;1.38;;
21432;SDS011;18592;49.708;10.900;2023-04-03T09:49:43;2.30;;;1.63;;
21432;SDS011;18592;49.708;10.900;2023-04-03T09:51:45;3.05;;;1.70;;
21432;SDS011;18592;49.708;10.900;2023-04-03T09:53:47;4.07;;;1.85;;
21432;SDS011;18592;49.708;10.900;2023-04-03T09:55:48;2.28;;;1.42;;
21432;SDS011;18592;49.708;10.900;2023-04-03T09:57:50;2.53;;;1.70;;
21432;SDS011;18592;49.708;10.900;2023-04-03T09:59:57;1.83;;;1.42;;
21432;SDS011;18592;49.708;10.900;2023-04-03T10:02:23;4.93;;;1.90;;
21432;SDS011;18592;49.708;10.900;2023-04-03T10:04:38;3.67;;;1.23;;
21432;SDS011;18592;49.708;10.900;2023-04-03T10:09:00;4.03;;;1.60;;
21432;SDS011;18592;49.708;10.900;2023-04-03T10:11:22;6.80;;;1.90;;
21432;SDS011;18592;49.708;10.900;2023-04-03T10:13:27;6.28;;;2.45;;
21432;SDS011;18592;49.708;10.900;2023-04-03T10:15:33;3.92;;;2.10;;
21432;SDS011;18592;49.708;10.900;2023-04-03T10:17:49;3.55;;;1.42;;
21432;SDS011;18592;49.708;10.900;2023-04-03T10:27:55;4.70;;;2.05;;
21432;SDS011;18592;49.708;10.900;2023-04-03T10:32:46;5.70;;;2.38;;
21432;SDS011;18592;49.708;10.900;2023-04-03T10:34:59;5.88;;;2.42;;
21432;SDS011;18592;49.708;10.900;2023-04-03T10:41:59;6.60;;;2.45;;
21432;SDS011;18592;49.708;10.900;2023-04-03T10:44:23;5.82;;;2.13;;
21432;SDS011;18592;49.708;10.900;2023-04-03T10:46:49;4.28;;;2.25;;
21432;SDS011;18592;49.708;10.900;2023-04-03T10:55:58;9.60;;;3.47;;
21432;SDS011;18592;49.708;10.900;2023-04-03T10:58:10;6.75;;;2.80;;
21432;SDS011;18592;49.708;10.900;2023-04-03T11:00:42;6.40;;;2.55;;
21432;SDS011;18592;49.708;10.900;2023-04-03T11:02:51;8.07;;;2.72;;
21432;SDS011;18592;49.708;10.900;2023-04-03T11:05:08;5.88;;;2.45;;
21432;SDS011;18592;49.708;10.900;2023-04-03T11:07:20;6.47;;;2.60;;
21432;SDS011;18592;49.708;10.900;2023-04-03T11:11:36;6.93;;;2.55;;
21432;SDS011;18592;49.708;10.900;2023-04-03T11:13:49;6.25;;;2.28;;
21432;SDS011;18592;49.708;10.900;2023-04-03T11:15:53;4.78;;;2.40;;
21432;SDS011;18592;49.708;10.900;2023-04-03T11:18:19;6.15;;;2.22;;
21432;SDS011;18592;49.708;10.900;2023-04-03T11:20:29;5.43;;;2.85;;
21432;SDS011;18592;49.708;10.900;2023-04-03T11:22:45;3.80;;;2.20;;
21432;SDS011;18592;49.708;10.900;2023-04-03T11:24:55;5.50;;;2.25;;
21432;SDS011;18592;49.708;10.900;2023-04-03T11:27:00;4.32;;;2.03;;
21432;SDS011;18592;49.708;10.900;2023-04-03T11:29:10;3.72;;;1.92;;
21432;SDS011;18592;49.708;10.900;2023-04-03T11:34:05;5.35;;;2.30;;
21432;SDS011;18592;49.708;10.900;2023-04-03T11:36:19;3.15;;;1.80;;
21432;SDS011;18592;49.708;10.900;2023-04-03T11:38:30;4.47;;;1.77;;
21432;SDS011;18592;49.708;10.900;2023-04-03T11:40:37;3.63;;;2.00;;
21432;SDS011;18592;49.708;10.900;2023-04-03T11:42:40;2.17;;;1.33;;
21432;SDS011;18592;49.708;10.900;2023-04-03T11:44:47;2.90;;;1.90;;
21432;SDS011;18592;49.708;10.900;2023-04-03T11:46:52;4.35;;;1.95;;
21432;SDS011;18592;49.708;10.900;2023-04-03T11:48:58;3.33;;;1.70;;
21432;SDS011;18592;49.708;10.900;2023-04-03T11:51:00;6.35;;;2.15;;
21432;SDS011;18592;49.708;10.900;2023-04-03T11:59:59;4.03;;;1.80;;
21432;SDS011;18592;49.708;10.900;2023-04-03T12:02:35;3.00;;;1.65;;
21432;SDS011;18592;49.708;10.900;2023-04-03T12:07:27;2.70;;;1.50;;
21432;SDS011;18592;49.708;10.900;2023-04-03T12:09:32;2.78;;;1.30;;
21432;SDS011;18592;49.708;10.900;2023-04-03T12:11:57;2.38;;;1.38;;
21432;SDS011;18592;49.708;10.900;2023-04-03T12:14:02;3.13;;;1.63;;
21432;SDS011;18592;49.708;10.900;2023-04-03T12:16:06;2.30;;;1.20;;
21432;SDS011;18592;49.708;10.900;2023-04-03T12:20:52;1.55;;;1.38;;
21432;SDS011;18592;49.708;10.900;2023-04-03T12:23:07;2.45;;;1.23;;
21432;SDS011;18592;49.708;10.900;2023-04-03T12:25:47;2.10;;;1.45;;
21432;SDS011;18592;49.708;10.900;2023-04-03T12:27:53;2.90;;;1.67;;
21432;SDS011;18592;49.708;10.900;2023-04-03T12:34:26;2.92;;;1.60;;
21432;SDS011;18592;49.708;10.900;2023-04-03T12:41:38;2.25;;;1.50;;
21432;SDS011;18592;49.708;10.900;2023-04-03T12:44:00;2.85;;;1.60;;
21432;SDS011;18592;49.708;10.900;2023-04-03T12:46:22;3.00;;;1.75;;
21432;SDS011;18592;49.708;10.900;2023-04-03T12:48:26;3.15;;;1.60;;
21432;SDS011;18592;49.708;10.900;2023-04-03T12:50:30;1.83;;;1.33;;
21432;SDS011;18592;49.708;10.900;2023-04-03T12:52:41;2.17;;;1.38;;
21432;SDS011;18592;49.708;10.900;2023-04-03T12:54:50;2.03;;;1.33;;
21432;SDS011;18592;49.708;10.900;2023-04-03T12:57:08;3.88;;;1.50;;
21432;SDS011;18592;49.708;10.900;2023-04-03T12:59:29;1.63;;;1.23;;
21432;SDS011;18592;49.708;10.900;2023-04-03T13:01:31;1.38;;;1.10;;
21432;SDS011;18592;49.708;10.900;2023-04-03T13:03:33;2.05;;;1.33;;
21432;SDS011;18592;49.708;10.900;2023-04-03T13:05:38;1.60;;;1.10;;
21432;SDS011;18592;49.708;10.900;2023-04-03T13:07:40;1.70;;;1.10;;
21432;SDS011;18592;49.708;10.900;2023-04-03T13:09:44;2.85;;;1.10;;
21432;SDS011;18592;49.708;10.900;2023-04-03T13:12:01;1.98;;;1.13;;
21432;SDS011;18592;49.708;10.900;2023-04-03T13:14:12;1.52;;;1.17;;
21432;SDS011;18592;49.708;10.900;2023-04-03T13:16:16;2.42;;;1.02;;
21432;SDS011;18592;49.708;10.900;2023-04-03T13:18:32;1.55;;;1.10;;
21432;SDS011;18592;49.708;10.900;2023-04-03T13:20:43;1.95;;;1.38;;
21432;SDS011;18592;49.708;10.900;2023-04-03T13:22:52;2.28;;;1.30;;
21432;SDS011;18592;49.708;10.900;2023-04-03T13:25:03;1.58;;;1.10;;
21432;SDS011;18592;49.708;10.900;2023-04-03T13:27:09;2.00;;;1.25;;
21432;SDS011;18592;49.708;10.900;2023-04-03T13:29:21;1.00;;;0.90;;